Time;durP1;ratioP1;P1;durP2;ratioP2;P2;SDS_P1;SDS_P2;PMS_P1;PMS_P2;Temp;Humidity;BMP_temperature;BMP_pressure;BME280_temperature;BME280_humidity;BME280_pressure;Samples;Min_cycle;Max_cycle;Signal;HPM_P1;HPM_P2
2023/10/20 00:00:06;;;;;;;7.73;2.53;;;13.40;99.90;;;;;;5074523;28;20436;-86
2023/10/20 00:02:33;;;;;;;3.43;1.97;;;13.40;99.90;;;;;;5074433;28;20483;-86
2023/10/20 00:05:01;;;;;;;3.17;1.73;;;13.40;99.90;;;;;;5074729;28;20441;-85
2023/10/20 00:07:27;;;;;;;3.60;2.10;;;13.30;99.90;;;;;;5074438;28;20788;-85
2023/10/20 00:09:55;;;;;;;0.90;0.83;;;13.40;99.90;;;;;;5074308;28;20449;-85
2023/10/20 00:12:21;;;;;;;1.40;1.30;;;13.40;99.90;;;;;;5074082;28;20485;-86
2023/10/20 00:14:49;;;;;;;4.03;2.20;;;13.30;99.90;;;;;;5073810;28;20480;-86
2023/10/20 00:17:16;;;;;;;1.30;1.13;;;13.40;99.90;;;;;;5074116;28;20441;-86
2023/10/20 00:19:43;;;;;;;1.70;1.00;;;13.30;99.90;;;;;;5074095;28;20441;-85
2023/10/20 00:22:10;;;;;;;2.30;1.40;;;13.30;99.90;;;;;;5073656;28;20429;-86
2023/10/20 00:24:37;;;;;;;2.50;1.47;;;13.30;99.90;;;;;;5073581;28;20973;-86
2023/10/20 00:27:04;;;;;;;2.10;1.43;;;13.30;99.90;;;;;;5073716;28;20448;-86
2023/10/20 00:29:31;;;;;;;2.57;1.60;;;13.30;99.90;;;;;;5073951;28;20445;-86
2023/10/20 00:31:59;;;;;;;2.80;1.40;;;13.30;99.90;;;;;;5073678;28;20433;-86
2023/10/20 00:34:26;;;;;;;1.50;1.23;;;13.30;99.90;;;;;;5073827;28;20484;-86
2023/10/20 00:36:52;;;;;;;3.20;1.93;;;13.30;99.90;;;;;;5073922;28;20445;-86
2023/10/20 00:39:19;;;;;;;2.83;1.70;;;13.40;99.90;;;;;;5073881;28;20947;-86
2023/10/20 00:41:46;;;;;;;2.30;1.40;;;13.30;99.90;;;;;;5073791;28;20455;-86
2023/10/20 00:44:12;;;;;;;1.40;1.30;;;13.30;99.90;;;;;;5073797;28;20464;-86
2023/10/20 00:46:39;;;;;;;2.30;1.27;;;13.30;99.90;;;;;;5073922;28;20436;-86
2023/10/20 00:49:09;;;;;;;2.13;1.47;;;13.40;99.90;;;;;;5073885;28;20815;-86
2023/10/20 00:51:36;;;;;;;4.97;1.33;;;13.30;99.90;;;;;;5073371;28;20515;-86
2023/10/20 00:54:03;;;;;;;1.90;1.33;;;13.30;99.90;;;;;;5074018;28;20485;-85
2023/10/20 00:56:32;;;;;;;1.93;1.07;;;13.30;99.90;;;;;;5073730;28;20487;-86
2023/10/20 00:59:00;;;;;;;1.63;1.30;;;13.30;99.90;;;;;;5073176;28;20868;-86
2023/10/20 01:01:27;;;;;;;2.80;1.17;;;13.30;99.90;;;;;;5073452;28;20448;-86
2023/10/20 01:03:55;;;;;;;1.60;1.30;;;13.30;99.90;;;;;;5073418;28;20526;-85
2023/10/20 01:06:23;;;;;;;2.37;2.00;;;13.30;99.90;;;;;;5073438;28;20444;-85
2023/10/20 01:08:55;;;;;;;2.50;1.67;;;13.40;99.90;;;;;;5073500;28;20445;-85
2023/10/20 01:11:22;;;;;;;1.63;0.80;;;13.30;99.90;;;;;;5073138;28;20906;-85
2023/10/20 01:13:49;;;;;;;3.37;1.57;;;13.40;99.90;;;;;;5073189;28;20492;-85
2023/10/20 01:16:15;;;;;;;1.93;1.40;;;13.30;99.90;;;;;;5073041;28;20435;-85
2023/10/20 01:18:42;;;;;;;3.40;1.40;;;13.30;99.90;;;;;;5073250;28;20445;-85
2023/10/20 01:21:09;;;;;;;1.40;1.30;;;13.30;99.90;;;;;;5073348;28;20445;-85
2023/10/20 01:23:38;;;;;;;2.40;1.80;;;13.20;99.90;;;;;;5073490;28;20468;-85
2023/10/20 01:26:06;;;;;;;2.43;1.80;;;13.20;99.90;;;;;;5074041;28;20492;-85
2023/10/20 01:28:33;;;;;;;3.60;1.43;;;13.20;99.90;;;;;;5073255;28;20437;-85
2023/10/20 01:30:59;;;;;;;2.23;2.00;;;13.70;99.90;;;;;;5073218;28;20449;-85
2023/10/20 01:33:26;;;;;;;4.33;2.20;;;13.30;99.90;;;;;;5072967;28;20476;-85
2023/10/20 01:35:53;;;;;;;3.17;2.20;;;13.30;99.90;;;;;;5072840;28;20933;-85
2023/10/20 01:38:20;;;;;;;2.50;1.43;;;13.30;99.90;;;;;;5073349;28;20456;-86
2023/10/20 01:40:46;;;;;;;3.63;1.33;;;13.30;99.90;;;;;;5073074;28;20972;-85
2023/10/20 01:43:14;;;;;;;4.07;2.03;;;13.30;99.90;;;;;;5073032;28;20471;-85
2023/10/20 01:45:41;;;;;;;2.30;1.93;;;13.20;99.90;;;;;;5072809;28;20963;-85
2023/10/20 01:48:09;;;;;;;1.50;1.40;;;13.40;99.90;;;;;;5072761;28;20457;-85
2023/10/20 01:50:37;;;;;;;5.53;2.17;;;13.20;99.90;;;;;;5072730;28;21000;-85
2023/10/20 01:53:04;;;;;;;3.30;1.80;;;13.20;99.90;;;;;;5073012;28;20886;-85
2023/10/20 01:55:31;;;;;;;1.43;1.30;;;13.20;99.90;;;;;;5072833;28;20468;-85
2023/10/20 01:57:58;;;;;;;2.80;1.77;;;13.20;99.90;;;;;;5072778;28;20460;-85
2023/10/20 02:00:26;;;;;;;1.30;1.20;;;13.20;99.90;;;;;;5073175;28;20444;-85
2023/10/20 02:02:52;;;;;;;2.47;1.90;;;13.20;99.90;;;;;;5072862;28;20468;-84
2023/10/20 02:05:19;;;;;;;2.23;2.03;;;13.20;99.90;;;;;;5072721;28;20448;-85
2023/10/20 02:07:46;;;;;;;2.17;1.80;;;13.20;99.90;;;;;;5072714;28;20453;-85
2023/10/20 02:10:13;;;;;;;2.63;2.00;;;13.40;99.90;;;;;;5072807;28;20440;-85
2023/10/20 02:12:40;;;;;;;4.60;1.80;;;13.20;99.90;;;;;;5076086;28;20518;-85
2023/10/20 02:15:08;;;;;;;3.20;1.97;;;13.20;99.90;;;;;;5075930;28;21019;-85
2023/10/20 02:17:36;;;;;;;2.83;2.03;;;13.20;99.90;;;;;;5076401;28;20794;-85
2023/10/20 02:20:03;;;;;;;3.30;1.97;;;13.20;99.90;;;;;;5076378;28;20447;-85
2023/10/20 02:22:33;;;;;;;2.70;1.80;;;13.20;99.90;;;;;;5076232;28;20502;-85
2023/10/20 02:25:00;;;;;;;5.73;2.00;;;13.30;99.90;;;;;;5076350;28;20768;-85
2023/10/20 02:27:28;;;;;;;3.50;1.63;;;13.20;99.90;;;;;;5076130;28;20447;-85
2023/10/20 02:29:55;;;;;;;2.43;1.43;;;13.20;99.90;;;;;;5076177;28;20444;-85
2023/10/20 02:32:22;;;;;;;7.13;1.70;;;13.10;99.90;;;;;;5075714;28;20821;-85
2023/10/20 02:34:50;;;;;;;2.60;1.70;;;13.10;99.90;;;;;;5075702;28;20477;-85
2023/10/20 02:37:17;;;;;;;1.33;1.23;;;13.20;99.90;;;;;;5076091;28;20445;-85
2023/10/20 02:39:43;;;;;;;2.87;1.47;;;13.10;99.90;;;;;;5075997;28;20452;-85
2023/10/20 02:42:11;;;;;;;3.80;1.30;;;13.20;99.90;;;;;;5075913;28;20452;-85
2023/10/20 02:44:38;;;;;;;1.63;1.00;;;13.10;99.90;;;;;;5075796;28;20515;-86
2023/10/20 02:47:05;;;;;;;1.07;0.70;;;13.10;99.90;;;;;;5075873;28;20812;-85
2023/10/20 02:49:32;;;;;;;2.40;1.27;;;13.10;99.90;;;;;;5075783;28;20453;-85
2023/10/20 02:52:00;;;;;;;3.93;1.40;;;13.00;99.90;;;;;;5075369;28;20483;-84
2023/10/20 02:54:27;;;;;;;1.70;1.07;;;13.00;99.90;;;;;;5075543;28;20496;-84
2023/10/20 02:56:56;;;;;;;2.00;1.33;;;13.00;99.90;;;;;;5075206;28;20449;-84
2023/10/20 02:59:24;;;;;;;3.43;0.80;;;13.00;99.90;;;;;;5075230;28;20925;-84
2023/10/20 03:01:50;;;;;;;1.47;1.00;;;13.00;99.90;;;;;;5075482;28;20445;-84
2023/10/20 03:04:19;;;;;;;1.53;1.07;;;13.00;99.90;;;;;;5075467;28;20820;-84
2023/10/20 03:06:46;;;;;;;1.50;0.93;;;13.00;99.90;;;;;;5075341;28;20448;-84
2023/10/20 03:09:14;;;;;;;7.07;1.40;;;13.00;99.90;;;;;;5075028;28;20452;-84
2023/10/20 03:11:42;;;;;;;5.60;2.03;;;13.00;99.90;;;;;;5075273;28;20453;-84
2023/10/20 03:14:10;;;;;;;1.37;0.93;;;13.00;99.90;;;;;;5075071;28;20538;-84
2023/10/20 03:16:42;;;;;;;1.80;1.20;;;13.00;99.90;;;;;;5075201;28;20482;-84
2023/10/20 03:19:09;;;;;;;4.00;2.13;;;13.00;99.90;;;;;;5075191;28;20425;-84
2023/10/20 03:21:36;;;;;;;1.30;1.20;;;13.00;99.90;;;;;;5074651;28;20453;-84
2023/10/20 03:24:04;;;;;;;0.90;0.90;;;12.90;99.90;;;;;;5075234;28;20829;-84
2023/10/20 03:26:32;;;;;;;1.03;0.80;;;12.90;99.90;;;;;;5075016;28;20447;-84
2023/10/20 03:28:59;;;;;;;1.27;1.17;;;12.80;99.90;;;;;;5074925;28;20448;-84
2023/10/20 03:31:26;;;;;;;1.57;0.97;;;12.80;99.90;;;;;;5074812;28;20449;-83
2023/10/20 03:33:53;;;;;;;5.10;2.83;;;12.70;99.90;;;;;;5074785;28;20474;-84
2023/10/20 03:36:21;;;;;;;1.63;1.47;;;12.70;99.90;;;;;;5075157;28;20452;-84
2023/10/20 03:38:49;;;;;;;1.27;0.90;;;12.80;99.90;;;;;;5075159;28;20477;-84
2023/10/20 03:41:16;;;;;;;1.30;1.00;;;12.80;99.90;;;;;;5074679;28;20452;-84
2023/10/20 03:43:45;;;;;;;1.37;1.13;;;12.70;99.90;;;;;;5074534;28;20465;-84
2023/10/20 03:46:13;;;;;;;1.70;1.10;;;12.70;99.90;;;;;;5074599;28;20494;-84
2023/10/20 03:48:40;;;;;;;1.70;1.10;;;12.70;99.90;;;;;;5074746;28;20452;-85
2023/10/20 03:51:11;;;;;;;1.07;0.87;;;12.80;99.90;;;;;;5074493;28;20507;-84
2023/10/20 03:53:46;;;;;;;1.23;0.97;;;12.70;99.90;;;;;;5074710;28;20476;-85
2023/10/20 03:56:13;;;;;;;1.00;0.90;;;12.70;99.90;;;;;;5074291;28;20509;-85
2023/10/20 03:58:42;;;;;;;2.53;1.00;;;12.80;99.90;;;;;;5074458;28;20449;-84
2023/10/20 04:01:11;;;;;;;1.50;1.40;;;12.80;99.90;;;;;;5074437;28;20937;-85
2023/10/20 04:03:38;;;;;;;1.07;1.00;;;12.70;99.90;;;;;;5074265;28;20465;-84
2023/10/20 04:06:08;;;;;;;1.20;1.10;;;12.60;99.90;;;;;;5073915;28;20539;-85
2023/10/20 04:08:35;;;;;;;1.50;1.30;;;12.70;99.90;;;;;;5074201;28;20783;-85
2023/10/20 04:11:02;;;;;;;1.47;1.13;;;12.70;99.90;;;;;;5074294;28;20460;-85
2023/10/20 04:13:29;;;;;;;1.57;1.33;;;12.70;99.90;;;;;;5074050;28;20461;-85
2023/10/20 04:15:56;;;;;;;2.60;1.50;;;12.70;99.90;;;;;;5074062;28;20900;-85
2023/10/20 04:18:24;;;;;;;2.27;1.60;;;13.20;99.90;;;;;;5074166;28;20455;-85
2023/10/20 04:20:57;;;;;;;3.43;1.30;;;12.70;99.90;;;;;;5074057;28;20445;-85
2023/10/20 04:23:24;;;;;;;2.17;1.33;;;12.60;99.90;;;;;;5073606;28;20961;-85
2023/10/20 04:25:53;;;;;;;2.33;2.07;;;12.50;99.90;;;;;;5073949;28;20433;-85
2023/10/20 04:28:28;;;;;;;3.30;1.63;;;12.60;99.90;;;;;;5073724;28;20531;-85
2023/10/20 04:42:00;;;;;;;1.97;1.77;;;12.40;99.90;;;;;;5073823;28;20413;-85
2023/10/20 04:48:07;;;;;;;4.43;3.13;;;12.50;99.90;;;;;;5073456;28;20518;-85
2023/10/20 04:51:08;;;;;;;3.07;1.70;;;12.40;99.90;;;;;;5072869;28;20844;-85
2023/10/20 04:53:55;;;;;;;2.60;2.00;;;12.50;99.90;;;;;;5073508;28;20552;-85
2023/10/20 04:56:32;;;;;;;3.03;2.70;;;12.40;99.90;;;;;;5073585;28;20465;-85
2023/10/20 04:59:04;;;;;;;4.43;2.87;;;12.40;99.90;;;;;;5073547;28;20435;-85
2023/10/20 05:01:41;;;;;;;5.00;2.57;;;12.40;99.90;;;;;;5075095;28;20468;-85
2023/10/20 05:04:14;;;;;;;2.97;2.70;;;12.40;99.90;;;;;;5073220;28;20471;-85
2023/10/20 05:06:44;;;;;;;3.73;2.90;;;12.40;99.90;;;;;;5073217;28;20469;-86
2023/10/20 05:09:14;;;;;;;8.50;3.30;;;12.40;99.90;;;;;;5073637;28;20449;-85
2023/10/20 05:11:41;;;;;;;1.67;1.57;;;12.30;99.90;;;;;;5073253;28;20503;-85
2023/10/20 05:14:08;;;;;;;6.00;2.53;;;12.30;99.90;;;;;;5073439;28;20465;-85
2023/10/20 05:16:35;;;;;;;7.00;3.27;;;12.30;99.90;;;;;;5073350;28;20538;-85
2023/10/20 05:19:03;;;;;;;6.10;2.80;;;12.30;99.90;;;;;;5073482;28;20441;-86
2023/10/20 05:21:33;;;;;;;2.33;1.73;;;12.20;99.90;;;;;;5073384;28;20635;-86
2023/10/20 05:24:04;;;;;;;3.30;2.90;;;12.20;99.90;;;;;;5073586;28;20469;-86
2023/10/20 05:26:31;;;;;;;3.97;2.50;;;12.20;99.90;;;;;;5073739;28;20476;-85
2023/10/20 05:28:58;;;;;;;3.70;2.83;;;12.10;99.90;;;;;;5073183;28;20437;-86
2023/10/20 05:31:26;;;;;;;3.23;1.97;;;12.10;99.90;;;;;;5073612;28;20444;-86
2023/10/20 05:33:53;;;;;;;3.50;3.20;;;12.10;99.90;;;;;;5073052;28;20469;-86
2023/10/20 05:36:20;;;;;;;7.97;3.53;;;12.20;99.90;;;;;;5073391;28;20483;-86
2023/10/20 05:38:47;;;;;;;5.57;2.40;;;12.20;99.90;;;;;;5073061;28;20957;-85
2023/10/20 05:41:15;;;;;;;7.40;2.70;;;12.10;99.90;;;;;;5072979;28;20945;-86
2023/10/20 05:43:42;;;;;;;5.73;2.90;;;12.80;99.90;;;;;;5072947;28;20465;-86
2023/10/20 05:46:14;;;;;;;2.70;1.83;;;12.10;99.90;;;;;;5075813;28;20987;-86
2023/10/20 05:48:41;;;;;;;7.30;2.60;;;12.00;99.90;;;;;;5077817;28;20441;-86
2023/10/20 05:51:08;;;;;;;3.13;2.70;;;12.00;99.90;;;;;;5076666;28;20475;-85
2023/10/20 05:53:34;;;;;;;5.30;3.67;;;12.00;99.90;;;;;;5076826;28;20456;-85
2023/10/20 05:56:01;;;;;;;4.93;2.07;;;12.00;99.90;;;;;;5076822;28;20481;-84
2023/10/20 05:58:32;;;;;;;6.27;1.87;;;12.00;99.90;;;;;;5076760;28;20473;-85
2023/10/20 06:01:05;;;;;;;2.13;1.73;;;12.10;99.90;;;;;;5076766;28;20779;-85
2023/10/20 06:03:31;;;;;;;3.90;2.17;;;12.10;99.90;;;;;;5076275;28;20984;-85
2023/10/20 06:05:59;;;;;;;2.17;1.97;;;12.00;99.90;;;;;;5076203;28;20929;-85
2023/10/20 06:08:28;;;;;;;3.47;2.00;;;12.00;99.90;;;;;;5076631;28;20449;-85
2023/10/20 06:10:54;;;;;;;3.17;2.43;;;12.10;99.90;;;;;;5076648;28;20445;-85
2023/10/20 06:13:21;;;;;;;2.37;2.00;;;12.10;99.90;;;;;;5076221;28;20453;-85
2023/10/20 06:15:49;;;;;;;2.90;2.30;;;12.00;99.90;;;;;;5076264;28;20503;-85
2023/10/20 06:18:17;;;;;;;5.90;3.07;;;12.00;99.90;;;;;;5076334;28;20452;-85
2023/10/20 06:20:44;;;;;;;4.63;2.00;;;12.00;99.90;;;;;;5076119;28;20456;-86
2023/10/20 06:23:11;;;;;;;12.33;2.10;;;12.00;99.90;;;;;;5076280;28;20969;-86
2023/10/20 06:25:38;;;;;;;1.93;1.83;;;12.00;99.90;;;;;;5076466;28;20439;-87
2023/10/20 06:28:06;;;;;;;6.57;2.77;;;12.10;99.90;;;;;;5076319;28;20447;-86
2023/10/20 06:30:33;;;;;;;4.50;2.57;;;12.00;99.90;;;;;;5076168;28;20445;-86
2023/10/20 06:33:16;;;;;;;5.57;3.40;;;12.00;99.90;;;;;;5076344;28;20465;-85
2023/10/20 06:35:50;;;;;;;3.60;2.70;;;12.00;99.90;;;;;;5075683;28;20502;-85
2023/10/20 06:38:19;;;;;;;3.63;1.97;;;12.00;99.90;;;;;;5076004;28;20468;-85
2023/10/20 06:40:47;;;;;;;2.30;2.10;;;12.00;99.90;;;;;;5075988;28;20449;-85
2023/10/20 06:43:16;;;;;;;6.10;3.00;;;12.00;99.90;;;;;;5075994;28;20465;-86
2023/10/20 06:45:43;;;;;;;5.50;2.53;;;12.00;99.90;;;;;;5076192;28;20444;-85
2023/10/20 06:48:14;;;;;;;3.60;1.97;;;12.10;99.90;;;;;;5076154;28;20444;-87
2023/10/20 06:50:40;;;;;;;2.80;2.17;;;12.10;99.90;;;;;;5075596;28;20532;-86
2023/10/20 06:53:07;;;;;;;5.27;3.23;;;12.20;99.90;;;;;;5075327;28;20473;-85
2023/10/20 06:55:34;;;;;;;4.20;2.20;;;12.30;99.90;;;;;;5075592;28;20481;-86
2023/10/20 06:58:02;;;;;;;3.37;2.60;;;12.40;99.90;;;;;;5074958;28;20443;-86
2023/10/20 07:00:29;;;;;;;2.40;2.00;;;12.40;99.90;;;;;;5075471;28;20981;-86
2023/10/20 07:02:56;;;;;;;5.33;2.50;;;12.40;99.90;;;;;;5075101;28;20460;-84
2023/10/20 07:05:24;;;;;;;4.23;2.70;;;12.40;99.90;;;;;;5075657;28;20445;-84
2023/10/20 07:07:51;;;;;;;7.23;1.93;;;12.50;99.90;;;;;;5075549;28;20449;-85
2023/10/20 07:10:21;;;;;;;6.00;2.37;;;12.50;99.90;;;;;;5075540;28;20444;-85
2023/10/20 07:12:48;;;;;;;4.00;3.00;;;12.60;99.90;;;;;;5075412;28;20476;-85
2023/10/20 07:15:15;;;;;;;5.00;2.60;;;12.60;99.90;;;;;;5074948;28;20842;-85
2023/10/20 07:17:42;;;;;;;2.50;2.10;;;12.60;99.90;;;;;;5075060;28;20953;-85
2023/10/20 07:20:10;;;;;;;4.40;3.10;;;12.60;99.90;;;;;;5074980;28;20440;-85
2023/10/20 07:22:38;;;;;;;4.80;2.90;;;12.60;99.90;;;;;;5075345;28;20464;-85
2023/10/20 07:25:06;;;;;;;2.07;1.40;;;12.60;99.90;;;;;;5075096;28;20820;-85
2023/10/20 07:27:33;;;;;;;2.90;2.47;;;12.60;99.90;;;;;;5074983;28;20451;-86
2023/10/20 07:29:59;;;;;;;5.97;4.40;;;12.60;99.90;;;;;;5075322;28;20449;-86
2023/10/20 07:32:26;;;;;;;4.57;2.70;;;12.60;99.90;;;;;;5074969;28;20440;-86
2023/10/20 07:34:53;;;;;;;4.03;2.50;;;12.70;99.90;;;;;;5075065;28;20804;-86
2023/10/20 07:37:20;;;;;;;2.57;2.37;;;12.70;99.90;;;;;;5075510;28;20841;-85
2023/10/20 07:39:49;;;;;;;5.20;2.83;;;13.20;99.90;;;;;;5074703;28;20455;-86
2023/10/20 07:42:19;;;;;;;4.50;2.17;;;12.80;99.90;;;;;;5074316;28;20484;-85
2023/10/20 07:44:46;;;;;;;6.87;3.37;;;12.80;99.90;;;;;;5074686;28;20452;-86
2023/10/20 07:47:13;;;;;;;3.77;2.00;;;12.80;99.90;;;;;;5074754;28;20436;-86
2023/10/20 07:49:40;;;;;;;3.83;2.20;;;12.90;99.90;;;;;;5074405;28;20444;-85
2023/10/20 07:52:07;;;;;;;10.80;3.00;;;12.90;99.90;;;;;;5074645;28;20432;-86
2023/10/20 07:54:34;;;;;;;6.50;3.53;;;12.90;99.90;;;;;;5074584;28;20464;-86
2023/10/20 07:57:02;;;;;;;6.40;3.37;;;13.20;99.90;;;;;;5074368;28;20480;-86
2023/10/20 07:59:29;;;;;;;3.00;2.17;;;13.00;99.90;;;;;;5074608;28;20445;-86
2023/10/20 08:01:56;;;;;;;6.80;3.30;;;13.10;99.90;;;;;;5074661;28;20445;-86
2023/10/20 08:04:23;;;;;;;2.97;2.27;;;13.10;99.90;;;;;;5074479;28;20464;-86
2023/10/20 08:06:50;;;;;;;5.60;2.90;;;13.20;99.90;;;;;;5074236;28;20528;-86
2023/10/20 08:09:17;;;;;;;4.43;2.60;;;13.30;99.90;;;;;;5073736;28;20445;-86
2023/10/20 08:11:45;;;;;;;5.20;2.90;;;13.30;99.90;;;;;;5074786;28;20539;-86
2023/10/20 08:14:13;;;;;;;3.37;2.37;;;13.20;99.90;;;;;;5074323;28;20543;-86
2023/10/20 08:16:40;;;;;;;4.27;2.40;;;13.30;99.90;;;;;;5073925;28;21009;-86
2023/10/20 08:19:07;;;;;;;4.50;2.90;;;13.30;99.90;;;;;;5074387;28;20864;-86
2023/10/20 08:21:34;;;;;;;6.60;3.60;;;13.40;99.90;;;;;;5074366;28;20531;-86
2023/10/20 08:24:02;;;;;;;3.03;2.07;;;13.40;99.90;;;;;;5074250;28;20836;-87
2023/10/20 08:26:31;;;;;;;3.97;2.47;;;13.50;99.90;;;;;;5073977;28;20444;-86
2023/10/20 08:28:59;;;;;;;2.30;2.07;;;13.50;99.90;;;;;;5074038;28;20452;-86
2023/10/20 08:31:28;;;;;;;5.73;3.13;;;13.50;99.90;;;;;;5074199;28;20445;-86
2023/10/20 08:33:54;;;;;;;2.73;1.83;;;13.50;99.90;;;;;;5073685;28;20981;-86
2023/10/20 08:36:22;;;;;;;4.50;3.00;;;13.60;99.90;;;;;;5073900;28;20489;-84
2023/10/20 08:38:49;;;;;;;2.73;2.43;;;13.60;99.90;;;;;;5073585;28;20988;-86
2023/10/20 08:41:18;;;;;;;7.77;3.60;;;13.70;99.90;;;;;;5073818;28;20812;-86
2023/10/20 08:43:46;;;;;;;6.70;3.70;;;13.80;99.90;;;;;;5073536;28;20460;-86
2023/10/20 08:46:14;;;;;;;3.53;2.97;;;14.00;99.90;;;;;;5074092;28;20441;-86
2023/10/20 08:48:43;;;;;;;2.53;2.30;;;14.00;99.90;;;;;;5073851;28;20449;-86
2023/10/20 08:51:11;;;;;;;3.73;3.23;;;14.00;99.90;;;;;;5073427;28;20484;-86
2023/10/20 08:53:38;;;;;;;4.97;2.53;;;14.00;99.90;;;;;;5073445;28;20476;-86
2023/10/20 08:56:07;;;;;;;5.00;2.63;;;14.10;99.90;;;;;;5073406;28;20477;-86
2023/10/20 08:58:35;;;;;;;2.93;2.03;;;14.10;99.90;;;;;;5073954;28;20471;-86
2023/10/20 09:01:03;;;;;;;32.53;4.43;;;14.10;99.90;;;;;;5073477;28;20499;-81
2023/10/20 09:03:39;;;;;;;3.30;3.00;;;14.20;99.90;;;;;;5073248;28;20469;-82
2023/10/20 09:06:09;;;;;;;7.80;3.40;;;14.40;99.90;;;;;;5073035;28;21007;-82
2023/10/20 09:08:36;;;;;;;4.63;3.27;;;14.50;99.90;;;;;;5073250;28;20429;-82
2023/10/20 09:11:06;;;;;;;4.03;2.40;;;14.60;99.90;;;;;;5073312;28;20445;-82
2023/10/20 09:13:34;;;;;;;4.30;3.40;;;14.60;99.90;;;;;;5073056;28;20969;-82
2023/10/20 09:16:02;;;;;;;3.33;3.03;;;14.70;99.90;;;;;;5073087;28;20495;-82
2023/10/20 09:18:29;;;;;;;4.73;2.40;;;14.70;99.90;;;;;;5073406;28;20864;-82
2023/10/20 09:21:04;;;;;;;3.10;2.50;;;14.70;99.90;;;;;;5075723;28;20448;-82
2023/10/20 09:23:32;;;;;;;3.33;2.60;;;14.70;99.90;;;;;;5077099;28;20951;-82
2023/10/20 09:25:59;;;;;;;4.00;3.30;;;14.70;99.90;;;;;;5077307;28;20436;-82
2023/10/20 09:28:26;;;;;;;3.60;2.23;;;14.70;99.90;;;;;;5077143;28;20447;-82
2023/10/20 09:30:54;;;;;;;4.37;2.60;;;14.70;99.90;;;;;;5076836;28;20444;-82
2023/10/20 09:33:23;;;;;;;2.07;1.87;;;14.80;99.90;;;;;;5077028;28;20518;-82
2023/10/20 09:35:51;;;;;;;3.97;2.10;;;14.90;99.90;;;;;;5076958;28;20449;-83
2023/10/20 09:38:25;;;;;;;3.53;1.73;;;15.20;99.90;;;;;;5076966;28;20444;-83
2023/10/20 09:41:03;;;;;;;11.13;1.87;;;15.90;99.90;;;;;;5076701;28;20429;-83
2023/10/20 09:43:32;;;;;;;2.87;1.97;;;16.50;99.90;;;;;;5076557;28;20973;-83
2023/10/20 09:46:12;;;;;;;2.00;1.77;;;16.80;99.90;;;;;;5076625;28;20433;-83
2023/10/20 09:48:41;;;;;;;1.57;1.30;;;16.80;99.90;;;;;;5077099;28;20508;-83
2023/10/20 09:51:08;;;;;;;3.03;1.83;;;16.80;99.90;;;;;;5076367;28;20485;-83
2023/10/20 09:53:36;;;;;;;1.60;1.00;;;16.60;99.90;;;;;;5076669;28;20468;-83
2023/10/20 09:56:05;;;;;;;1.43;1.23;;;16.50;99.90;;;;;;5076596;28;20488;-83
2023/10/20 09:58:34;;;;;;;2.60;1.00;;;16.60;99.90;;;;;;5076627;28;20436;-83
2023/10/20 10:01:02;;;;;;;2.10;1.23;;;16.70;99.90;;;;;;5076590;28;20502;-82
2023/10/20 10:03:34;;;;;;;0.90;0.90;;;16.80;99.90;;;;;;5076069;28;21001;-82
2023/10/20 10:06:02;;;;;;;1.00;0.90;;;16.80;99.90;;;;;;5076484;28;20484;-82
2023/10/20 10:08:29;;;;;;;0.80;0.80;;;16.80;99.90;;;;;;5076415;28;20448;-84
2023/10/20 10:10:55;;;;;;;2.30;1.20;;;16.80;99.90;;;;;;5076382;28;20452;-84
2023/10/20 10:13:35;;;;;;;1.30;1.20;;;16.80;99.90;;;;;;5076339;28;20496;-83
2023/10/20 10:16:13;;;;;;;2.67;1.70;;;16.80;99.90;;;;;;5076017;28;20957;-84
2023/10/20 10:18:46;;;;;;;0.90;0.90;;;17.00;99.90;;;;;;5075982;28;20519;-83
2023/10/20 10:21:24;;;;;;;1.03;0.80;;;17.10;99.90;;;;;;5076415;28;20429;-83
2023/10/20 10:24:13;;;;;;;0.67;0.63;;;17.20;99.90;;;;;;5075824;28;20465;-84
2023/10/20 10:27:03;;;;;;;1.97;0.93;;;17.30;99.90;;;;;;5075997;28;20440;-80
2023/10/20 10:29:53;;;;;;;1.53;0.90;;;17.40;99.90;;;;;;5071744;28;20535;-80
2023/10/20 10:32:20;;;;;;;0.57;0.57;;;17.40;99.90;;;;;;5074621;28;20472;-83
2023/10/20 10:34:49;;;;;;;0.70;0.70;;;17.40;99.90;;;;;;5075813;28;20816;-83
2023/10/20 10:37:17;;;;;;;0.60;0.60;;;17.50;99.90;;;;;;5075679;28;20476;-83
2023/10/20 10:39:44;;;;;;;0.53;0.50;;;17.50;99.90;;;;;;5075859;28;20789;-75
2023/10/20 10:42:11;;;;;;;0.50;0.47;;;17.20;99.90;;;;;;5075838;28;20474;-82
2023/10/20 10:44:38;;;;;;;0.60;0.50;;;17.10;99.90;;;;;;5075879;28;20985;-83
2023/10/20 10:47:17;;;;;;;0.67;0.50;;;17.10;99.90;;;;;;5075773;28;20532;-83
2023/10/20 10:49:48;;;;;;;0.43;0.33;;;17.00;99.90;;;;;;5075141;28;20436;-81
2023/10/20 10:52:16;;;;;;;0.40;0.30;;;16.90;99.90;;;;;;5075566;28;20425;-82
2023/10/20 10:54:43;;;;;;;0.30;0.30;;;16.80;99.90;;;;;;5075344;28;20425;-83
2023/10/20 10:57:11;;;;;;;0.40;0.30;;;16.80;99.90;;;;;;5075193;28;20529;-83
2023/10/20 10:59:38;;;;;;;1.13;0.40;;;16.80;99.90;;;;;;5075486;28;20502;-84
2023/10/20 11:02:06;;;;;;;0.30;0.30;;;16.70;99.90;;;;;;5075328;28;20445;-84
2023/10/20 11:04:33;;;;;;;0.30;0.30;;;16.70;99.90;;;;;;5075445;28;20492;-84
2023/10/20 11:07:00;;;;;;;0.50;0.30;;;16.60;99.90;;;;;;5075129;28;20987;-84
2023/10/20 11:09:28;;;;;;;0.73;0.30;;;16.60;99.90;;;;;;5075050;28;20436;-84
2023/10/20 11:11:56;;;;;;;0.40;0.40;;;16.60;99.90;;;;;;5075320;28;20445;-84
2023/10/20 11:14:24;;;;;;;0.30;0.30;;;16.60;99.90;;;;;;5075066;28;20473;-84
2023/10/20 11:16:51;;;;;;;0.40;0.30;;;16.50;99.90;;;;;;5075026;28;20534;-85
2023/10/20 11:19:19;;;;;;;0.30;0.30;;;16.50;99.90;;;;;;5075476;28;20536;-84
2023/10/20 11:21:48;;;;;;;0.30;0.30;;;16.50;99.90;;;;;;5075362;28;20540;-84
2023/10/20 11:24:28;;;;;;;0.30;0.30;;;16.50;99.90;;;;;;5075136;28;20461;-84
2023/10/20 11:26:57;;;;;;;0.40;0.30;;;16.50;99.90;;;;;;5074719;28;20444;-84
2023/10/20 11:29:25;;;;;;;0.30;0.30;;;16.50;99.90;;;;;;5075141;28;20444;-84
2023/10/20 11:31:52;;;;;;;0.30;0.30;;;16.50;99.90;;;;;;5074658;28;20945;-84
2023/10/20 11:34:21;;;;;;;0.30;0.20;;;16.60;99.90;;;;;;5074801;28;20469;-84
2023/10/20 11:36:47;;;;;;;0.30;0.30;;;16.60;99.90;;;;;;5075009;28;20857;-84
2023/10/20 11:39:15;;;;;;;0.40;0.30;;;16.60;99.90;;;;;;5074953;28;20433;-84
2023/10/20 11:41:42;;;;;;;0.30;0.30;;;16.50;99.90;;;;;;5074835;28;20453;-84
2023/10/20 11:44:09;;;;;;;0.40;0.30;;;16.50;99.90;;;;;;5074115;28;20476;-84
2023/10/20 11:46:35;;;;;;;0.30;0.30;;;16.40;99.90;;;;;;5074244;28;20452;-84
2023/10/20 11:49:02;;;;;;;0.30;0.30;;;16.40;99.90;;;;;;5074349;28;20441;-84
2023/10/20 11:51:30;;;;;;;0.30;0.30;;;16.50;99.90;;;;;;5074347;28;20488;-84
2023/10/20 11:53:57;;;;;;;0.30;0.30;;;16.40;99.90;;;;;;5074129;28;20993;-84
2023/10/20 11:56:25;;;;;;;0.30;0.30;;;16.40;99.90;;;;;;5074057;28;20448;-84
2023/10/20 11:58:52;;;;;;;0.40;0.40;;;16.40;99.90;;;;;;5074721;28;20452;-83
2023/10/20 12:01:18;;;;;;;0.30;0.30;;;16.40;99.90;;;;;;5074339;28;20805;-83
2023/10/20 12:03:45;;;;;;;1.90;0.30;;;16.50;99.90;;;;;;5074085;28;20468;-82
2023/10/20 12:06:12;;;;;;;0.30;0.30;;;16.40;99.90;;;;;;5074140;28;20441;-82
2023/10/20 12:08:41;;;;;;;0.30;0.30;;;16.40;99.90;;;;;;5073942;28;20452;-82
2023/10/20 12:11:08;;;;;;;0.30;0.30;;;16.40;99.90;;;;;;5073875;28;20496;-83
2023/10/20 12:13:36;;;;;;;0.93;0.30;;;16.40;99.90;;;;;;5074049;28;20551;-82
2023/10/20 12:16:04;;;;;;;0.50;0.50;;;16.40;99.90;;;;;;5074115;28;20441;-83
2023/10/20 12:18:31;;;;;;;0.30;0.30;;;16.50;99.90;;;;;;5073629;28;20496;-83
2023/10/20 12:20:58;;;;;;;0.30;0.30;;;16.40;99.90;;;;;;5073976;28;20453;-83
2023/10/20 12:23:24;;;;;;;0.30;0.30;;;16.70;99.90;;;;;;5073865;28;20461;-83
2023/10/20 12:25:52;;;;;;;0.40;0.40;;;16.70;99.90;;;;;;5073609;28;20444;-83
2023/10/20 12:28:19;;;;;;;0.30;0.30;;;16.80;99.90;;;;;;5073694;28;20437;-83
2023/10/20 12:30:47;;;;;;;0.30;0.30;;;16.90;99.90;;;;;;5073847;28;20506;-83
2023/10/20 12:33:14;;;;;;;1.20;0.70;;;17.10;99.90;;;;;;5073938;28;20461;-84
2023/10/20 12:35:41;;;;;;;1.03;0.40;;;17.20;99.90;;;;;;5073849;28;20433;-83
2023/10/20 12:38:07;;;;;;;0.80;0.40;;;17.10;99.90;;;;;;5073850;28;20477;-83
2023/10/20 12:40:35;;;;;;;0.50;0.50;;;17.10;99.90;;;;;;5073949;28;20527;-83
2023/10/20 12:43:08;;;;;;;0.40;0.30;;;17.10;99.90;;;;;;5074650;28;20518;-83
2023/10/20 12:45:37;;;;;;;0.30;0.30;;;17.00;99.90;;;;;;5072719;28;20491;-83
2023/10/20 12:48:04;;;;;;;0.30;0.30;;;16.90;99.90;;;;;;5068804;28;20461;-83
2023/10/20 12:50:33;;;;;;;0.60;0.60;;;16.90;99.90;;;;;;5053759;28;20900;-83
2023/10/20 12:53:00;;;;;;;0.93;0.80;;;16.90;99.90;;;;;;5053386;28;20997;-83
2023/10/20 12:55:27;;;;;;;0.70;0.50;;;16.90;99.90;;;;;;5052212;28;20466;-83
2023/10/20 12:57:54;;;;;;;0.30;0.30;;;16.80;99.90;;;;;;5059349;28;20491;-83
2023/10/20 13:00:22;;;;;;;1.53;0.43;;;16.90;99.90;;;;;;5053517;28;20462;-84
2023/10/20 13:02:50;;;;;;;0.50;0.40;;;16.80;99.90;;;;;;5053510;28;20468;-83
2023/10/20 13:05:17;;;;;;;0.40;0.30;;;16.80;99.90;;;;;;5054084;28;20461;-84